sensor_id;sensor_type;location;lat;lon;timestamp;P1;durP1;ratioP1;P2;durP2;ratioP2
35128;SDS011;21301;43.626;10.580;2023-02-15T00:00:22;19.35;;;10.43;;
35128;SDS011;21301;43.626;10.580;2023-02-15T00:02:48;19.02;;;10.77;;
35128;SDS011;21301;43.626;10.580;2023-02-15T00:05:14;22.52;;;12.90;;
35128;SDS011;21301;43.626;10.580;2023-02-15T00:07:40;19.40;;;11.50;;
35128;SDS011;21301;43.626;10.580;2023-02-15T00:10:05;23.92;;;13.32;;
35128;SDS011;21301;43.626;10.580;2023-02-15T00:12:32;24.88;;;14.35;;
35128;SDS011;21301;43.626;10.580;2023-02-15T00:14:58;23.98;;;13.73;;
35128;SDS011;21301;43.626;10.580;2023-02-15T00:17:23;30.10;;;14.82;;
35128;SDS011;21301;43.626;10.580;2023-02-15T00:19:51;23.27;;;13.88;;
35128;SDS011;21301;43.626;10.580;2023-02-15T00:22:17;24.17;;;14.65;;
35128;SDS011;21301;43.626;10.580;2023-02-15T00:24:43;26.23;;;16.48;;
35128;SDS011;21301;43.626;10.580;2023-02-15T00:27:09;25.77;;;15.25;;
35128;SDS011;21301;43.626;10.580;2023-02-15T00:29:35;25.08;;;12.25;;
35128;SDS011;21301;43.626;10.580;2023-02-15T00:32:00;25.85;;;14.15;;
35128;SDS011;21301;43.626;10.580;2023-02-15T00:34:26;20.13;;;11.80;;
35128;SDS011;21301;43.626;10.580;2023-02-15T00:36:55;24.30;;;14.07;;
35128;SDS011;21301;43.626;10.580;2023-02-15T00:39:21;24.60;;;14.40;;
35128;SDS011;21301;43.626;10.580;2023-02-15T00:41:48;20.75;;;11.55;;
35128;SDS011;21301;43.626;10.580;2023-02-15T00:44:15;22.10;;;13.55;;
35128;SDS011;21301;43.626;10.580;2023-02-15T00:46:41;25.00;;;15.15;;
35128;SDS011;21301;43.626;10.580;2023-02-15T00:49:08;20.98;;;11.77;;
35128;SDS011;21301;43.626;10.580;2023-02-15T00:51:34;19.55;;;12.90;;
35128;SDS011;21301;43.626;10.580;2023-02-15T00:54:00;21.73;;;13.18;;
35128;SDS011;21301;43.626;10.580;2023-02-15T00:56:28;25.75;;;13.55;;
35128;SDS011;21301;43.626;10.580;2023-02-15T00:58:54;22.98;;;12.50;;
35128;SDS011;21301;43.626;10.580;2023-02-15T01:01:20;20.02;;;12.35;;
35128;SDS011;21301;43.626;10.580;2023-02-15T01:03:46;24.67;;;13.10;;
35128;SDS011;21301;43.626;10.580;2023-02-15T01:06:13;20.40;;;12.55;;
35128;SDS011;21301;43.626;10.580;2023-02-15T01:08:42;18.27;;;12.43;;
35128;SDS011;21301;43.626;10.580;2023-02-15T01:11:09;19.17;;;11.00;;
35128;SDS011;21301;43.626;10.580;2023-02-15T01:13:37;18.38;;;11.68;;
35128;SDS011;21301;43.626;10.580;2023-02-15T01:16:04;21.73;;;13.05;;
35128;SDS011;21301;43.626;10.580;2023-02-15T01:18:30;19.92;;;13.48;;
35128;SDS011;21301;43.626;10.580;2023-02-15T01:20:56;20.75;;;12.10;;
35128;SDS011;21301;43.626;10.580;2023-02-15T01:23:22;17.45;;;12.00;;
35128;SDS011;21301;43.626;10.580;2023-02-15T01:25:48;19.23;;;11.88;;
35128;SDS011;21301;43.626;10.580;2023-02-15T01:28:14;22.70;;;12.07;;
35128;SDS011;21301;43.626;10.580;2023-02-15T01:30:40;25.13;;;13.05;;
35128;SDS011;21301;43.626;10.580;2023-02-15T01:33:07;33.88;;;12.75;;
35128;SDS011;21301;43.626;10.580;2023-02-15T01:35:42;19.90;;;12.40;;
35128;SDS011;21301;43.626;10.580;2023-02-15T01:38:09;20.23;;;14.07;;
35128;SDS011;21301;43.626;10.580;2023-02-15T01:40:36;18.17;;;12.02;;
35128;SDS011;21301;43.626;10.580;2023-02-15T01:43:07;20.92;;;11.07;;
35128;SDS011;21301;43.626;10.580;2023-02-15T01:45:36;18.55;;;10.93;;
35128;SDS011;21301;43.626;10.580;2023-02-15T01:51:01;19.55;;;10.57;;
35128;SDS011;21301;43.626;10.580;2023-02-15T01:53:34;18.25;;;11.55;;
35128;SDS011;21301;43.626;10.580;2023-02-15T01:56:08;18.48;;;11.35;;
35128;SDS011;21301;43.626;10.580;2023-02-15T01:58:39;21.90;;;11.05;;
35128;SDS011;21301;43.626;10.580;2023-02-15T02:01:06;18.58;;;10.55;;
35128;SDS011;21301;43.626;10.580;2023-02-15T02:03:53;23.85;;;12.98;;
35128;SDS011;21301;43.626;10.580;2023-02-15T02:06:23;25.95;;;12.77;;
35128;SDS011;21301;43.626;10.580;2023-02-15T02:08:49;27.35;;;12.45;;
35128;SDS011;21301;43.626;10.580;2023-02-15T02:11:15;28.20;;;12.13;;
35128;SDS011;21301;43.626;10.580;2023-02-15T02:13:44;27.00;;;11.95;;
35128;SDS011;21301;43.626;10.580;2023-02-15T02:16:17;25.05;;;12.90;;
35128;SDS011;21301;43.626;10.580;2023-02-15T02:18:58;31.75;;;13.85;;
35128;SDS011;21301;43.626;10.580;2023-02-15T02:27:39;48.22;;;15.02;;
35128;SDS011;21301;43.626;10.580;2023-02-15T02:35:34;46.38;;;14.88;;
35128;SDS011;21301;43.626;10.580;2023-02-15T02:41:22;36.30;;;15.98;;
35128;SDS011;21301;43.626;10.580;2023-02-15T02:44:07;40.40;;;13.40;;
35128;SDS011;21301;43.626;10.580;2023-02-15T02:46:59;45.85;;;16.98;;
35128;SDS011;21301;43.626;10.580;2023-02-15T02:49:35;39.58;;;15.77;;
35128;SDS011;21301;43.626;10.580;2023-02-15T02:54:58;41.47;;;16.40;;
35128;SDS011;21301;43.626;10.580;2023-02-15T02:57:24;43.35;;;16.95;;
35128;SDS011;21301;43.626;10.580;2023-02-15T02:59:53;40.97;;;18.67;;
35128;SDS011;21301;43.626;10.580;2023-02-15T03:02:26;41.30;;;17.35;;
35128;SDS011;21301;43.626;10.580;2023-02-15T03:05:01;36.00;;;16.55;;
35128;SDS011;21301;43.626;10.580;2023-02-15T03:07:30;43.97;;;15.55;;
35128;SDS011;21301;43.626;10.580;2023-02-15T03:09:59;40.85;;;17.02;;
35128;SDS011;21301;43.626;10.580;2023-02-15T03:12:36;58.72;;;20.33;;
35128;SDS011;21301;43.626;10.580;2023-02-15T03:17:39;40.55;;;16.27;;
35128;SDS011;21301;43.626;10.580;2023-02-15T03:20:30;64.85;;;17.50;;
35128;SDS011;21301;43.626;10.580;2023-02-15T03:23:01;53.72;;;18.40;;
35128;SDS011;21301;43.626;10.580;2023-02-15T03:25:37;37.03;;;17.80;;
35128;SDS011;21301;43.626;10.580;2023-02-15T03:28:11;44.92;;;18.60;;
35128;SDS011;21301;43.626;10.580;2023-02-15T03:30:43;46.80;;;18.85;;
35128;SDS011;21301;43.626;10.580;2023-02-15T03:33:13;46.40;;;18.00;;
35128;SDS011;21301;43.626;10.580;2023-02-15T03:35:50;49.53;;;19.08;;
35128;SDS011;21301;43.626;10.580;2023-02-15T03:38:25;58.85;;;17.55;;
35128;SDS011;21301;43.626;10.580;2023-02-15T03:40:59;64.25;;;16.13;;
35128;SDS011;21301;43.626;10.580;2023-02-15T03:43:49;50.20;;;19.33;;
35128;SDS011;21301;43.626;10.580;2023-02-15T03:46:23;61.22;;;20.60;;
35128;SDS011;21301;43.626;10.580;2023-02-15T03:49:22;38.65;;;16.75;;
35128;SDS011;21301;43.626;10.580;2023-02-15T03:51:53;54.63;;;19.48;;
35128;SDS011;21301;43.626;10.580;2023-02-15T03:54:24;56.58;;;18.52;;
35128;SDS011;21301;43.626;10.580;2023-02-15T04:00:04;56.47;;;18.20;;
35128;SDS011;21301;43.626;10.580;2023-02-15T04:05:41;48.20;;;18.65;;
35128;SDS011;21301;43.626;10.580;2023-02-15T04:08:09;47.80;;;20.00;;
35128;SDS011;21301;43.626;10.580;2023-02-15T04:10:35;54.97;;;20.02;;
35128;SDS011;21301;43.626;10.580;2023-02-15T04:13:29;74.22;;;23.45;;
35128;SDS011;21301;43.626;10.580;2023-02-15T04:15:56;59.22;;;19.83;;
35128;SDS011;21301;43.626;10.580;2023-02-15T04:18:35;58.38;;;20.02;;
35128;SDS011;21301;43.626;10.580;2023-02-15T04:21:24;49.92;;;17.45;;
35128;SDS011;21301;43.626;10.580;2023-02-15T04:24:10;74.05;;;19.65;;
35128;SDS011;21301;43.626;10.580;2023-02-15T04:26:56;55.45;;;18.95;;
35128;SDS011;21301;43.626;10.580;2023-02-15T04:29:22;55.58;;;17.60;;
35128;SDS011;21301;43.626;10.580;2023-02-15T04:31:49;50.75;;;19.98;;
35128;SDS011;21301;43.626;10.580;2023-02-15T04:34:16;48.92;;;20.58;;
35128;SDS011;21301;43.626;10.580;2023-02-15T04:36:42;51.90;;;18.83;;
35128;SDS011;21301;43.626;10.580;2023-02-15T04:39:08;63.70;;;22.08;;
35128;SDS011;21301;43.626;10.580;2023-02-15T04:41:34;56.10;;;20.85;;
35128;SDS011;21301;43.626;10.580;2023-02-15T04:44:00;66.05;;;21.20;;
35128;SDS011;21301;43.626;10.580;2023-02-15T04:46:27;55.47;;;19.05;;
35128;SDS011;21301;43.626;10.580;2023-02-15T04:48:53;66.55;;;20.27;;
35128;SDS011;21301;43.626;10.580;2023-02-15T04:51:19;58.60;;;25.08;;
35128;SDS011;21301;43.626;10.580;2023-02-15T04:53:45;53.60;;;26.75;;
35128;SDS011;21301;43.626;10.580;2023-02-15T04:56:10;59.35;;;28.52;;
35128;SDS011;21301;43.626;10.580;2023-02-15T04:58:36;68.55;;;30.10;;
35128;SDS011;21301;43.626;10.580;2023-02-15T05:01:06;61.65;;;31.52;;
35128;SDS011;21301;43.626;10.580;2023-02-15T05:03:35;82.20;;;36.88;;
35128;SDS011;21301;43.626;10.580;2023-02-15T05:06:01;74.32;;;30.83;;
35128;SDS011;21301;43.626;10.580;2023-02-15T05:08:27;63.33;;;32.28;;
35128;SDS011;21301;43.626;10.580;2023-02-15T05:10:53;77.38;;;36.45;;
35128;SDS011;21301;43.626;10.580;2023-02-15T05:13:19;68.00;;;30.88;;
35128;SDS011;21301;43.626;10.580;2023-02-15T05:15:49;75.85;;;34.95;;
35128;SDS011;21301;43.626;10.580;2023-02-15T05:18:19;67.10;;;33.63;;
35128;SDS011;21301;43.626;10.580;2023-02-15T05:20:46;82.00;;;35.40;;
35128;SDS011;21301;43.626;10.580;2023-02-15T05:23:12;73.38;;;35.53;;
35128;SDS011;21301;43.626;10.580;2023-02-15T05:25:38;78.53;;;36.67;;
35128;SDS011;21301;43.626;10.580;2023-02-15T05:28:23;78.35;;;34.30;;
35128;SDS011;21301;43.626;10.580;2023-02-15T05:30:51;76.60;;;35.83;;
35128;SDS011;21301;43.626;10.580;2023-02-15T05:33:33;71.15;;;34.58;;
35128;SDS011;21301;43.626;10.580;2023-02-15T05:35:59;98.85;;;38.45;;
35128;SDS011;21301;43.626;10.580;2023-02-15T05:38:26;84.18;;;36.55;;
35128;SDS011;21301;43.626;10.580;2023-02-15T05:40:52;85.30;;;37.42;;
35128;SDS011;21301;43.626;10.580;2023-02-15T05:43:18;85.22;;;35.72;;
35128;SDS011;21301;43.626;10.580;2023-02-15T05:45:45;90.15;;;34.65;;
35128;SDS011;21301;43.626;10.580;2023-02-15T05:48:11;72.85;;;33.67;;
35128;SDS011;21301;43.626;10.580;2023-02-15T05:50:37;88.07;;;35.95;;
35128;SDS011;21301;43.626;10.580;2023-02-15T05:53:03;78.57;;;34.22;;
35128;SDS011;21301;43.626;10.580;2023-02-15T05:55:29;75.57;;;32.38;;
35128;SDS011;21301;43.626;10.580;2023-02-15T05:57:54;80.28;;;35.78;;
35128;SDS011;21301;43.626;10.580;2023-02-15T06:00:20;93.15;;;35.30;;
35128;SDS011;21301;43.626;10.580;2023-02-15T06:02:46;82.68;;;36.78;;
35128;SDS011;21301;43.626;10.580;2023-02-15T06:05:12;76.80;;;34.75;;
35128;SDS011;21301;43.626;10.580;2023-02-15T06:07:38;81.22;;;34.20;;
35128;SDS011;21301;43.626;10.580;2023-02-15T06:10:04;82.85;;;36.17;;
35128;SDS011;21301;43.626;10.580;2023-02-15T06:12:30;89.13;;;34.45;;
35128;SDS011;21301;43.626;10.580;2023-02-15T06:14:56;62.30;;;31.02;;
35128;SDS011;21301;43.626;10.580;2023-02-15T06:17:22;68.38;;;30.23;;
35128;SDS011;21301;43.626;10.580;2023-02-15T06:19:48;67.75;;;29.98;;
35128;SDS011;21301;43.626;10.580;2023-02-15T06:22:13;77.45;;;28.17;;
35128;SDS011;21301;43.626;10.580;2023-02-15T06:24:39;87.30;;;32.50;;
35128;SDS011;21301;43.626;10.580;2023-02-15T06:27:08;73.55;;;30.70;;
35128;SDS011;21301;43.626;10.580;2023-02-15T06:29:35;86.00;;;29.90;;
35128;SDS011;21301;43.626;10.580;2023-02-15T06:32:01;65.03;;;30.17;;
35128;SDS011;21301;43.626;10.580;2023-02-15T06:34:27;91.47;;;31.40;;
35128;SDS011;21301;43.626;10.580;2023-02-15T06:36:52;75.60;;;28.92;;
35128;SDS011;21301;43.626;10.580;2023-02-15T06:39:18;67.13;;;27.52;;
35128;SDS011;21301;43.626;10.580;2023-02-15T06:41:44;100.93;;;33.97;;
35128;SDS011;21301;43.626;10.580;2023-02-15T06:44:10;79.50;;;31.00;;
35128;SDS011;21301;43.626;10.580;2023-02-15T06:46:36;64.90;;;28.17;;
35128;SDS011;21301;43.626;10.580;2023-02-15T06:49:02;84.50;;;32.90;;
35128;SDS011;21301;43.626;10.580;2023-02-15T06:51:27;61.03;;;29.10;;
35128;SDS011;21301;43.626;10.580;2023-02-15T06:53:53;65.78;;;28.80;;
35128;SDS011;21301;43.626;10.580;2023-02-15T06:56:19;74.85;;;31.52;;
35128;SDS011;21301;43.626;10.580;2023-02-15T06:58:45;67.50;;;27.48;;
35128;SDS011;21301;43.626;10.580;2023-02-15T07:01:11;77.90;;;34.85;;
35128;SDS011;21301;43.626;10.580;2023-02-15T07:03:37;78.32;;;32.58;;
35128;SDS011;21301;43.626;10.580;2023-02-15T07:06:03;72.93;;;32.05;;
35128;SDS011;21301;43.626;10.580;2023-02-15T07:08:33;60.40;;;29.02;;
35128;SDS011;21301;43.626;10.580;2023-02-15T07:11:00;77.00;;;31.10;;
35128;SDS011;21301;43.626;10.580;2023-02-15T07:13:45;68.32;;;30.58;;
35128;SDS011;21301;43.626;10.580;2023-02-15T07:16:12;63.28;;;31.60;;
35128;SDS011;21301;43.626;10.580;2023-02-15T07:18:38;69.07;;;30.00;;
35128;SDS011;21301;43.626;10.580;2023-02-15T07:21:05;72.45;;;33.90;;
35128;SDS011;21301;43.626;10.580;2023-02-15T07:23:35;57.70;;;29.30;;
35128;SDS011;21301;43.626;10.580;2023-02-15T07:26:02;68.32;;;32.72;;
35128;SDS011;21301;43.626;10.580;2023-02-15T07:28:28;81.68;;;32.97;;
35128;SDS011;21301;43.626;10.580;2023-02-15T07:30:54;94.45;;;44.42;;
35128;SDS011;21301;43.626;10.580;2023-02-15T07:33:22;79.68;;;38.50;;
35128;SDS011;21301;43.626;10.580;2023-02-15T07:35:52;74.28;;;34.22;;
35128;SDS011;21301;43.626;10.580;2023-02-15T07:38:20;76.95;;;32.38;;
35128;SDS011;21301;43.626;10.580;2023-02-15T07:40:46;64.00;;;31.85;;
35128;SDS011;21301;43.626;10.580;2023-02-15T07:43:12;80.85;;;35.92;;
35128;SDS011;21301;43.626;10.580;2023-02-15T07:45:39;62.75;;;32.03;;
35128;SDS011;21301;43.626;10.580;2023-02-15T07:48:05;60.70;;;29.65;;
35128;SDS011;21301;43.626;10.580;2023-02-15T07:50:31;62.40;;;27.30;;
35128;SDS011;21301;43.626;10.580;2023-02-15T07:52:57;64.18;;;27.38;;
35128;SDS011;21301;43.626;10.580;2023-02-15T07:55:23;72.15;;;30.50;;
35128;SDS011;21301;43.626;10.580;2023-02-15T07:57:50;57.83;;;25.42;;
35128;SDS011;21301;43.626;10.580;2023-02-15T08:00:17;42.83;;;20.85;;
35128;SDS011;21301;43.626;10.580;2023-02-15T08:02:48;42.78;;;20.40;;
35128;SDS011;21301;43.626;10.580;2023-02-15T08:05:38;45.72;;;22.75;;
35128;SDS011;21301;43.626;10.580;2023-02-15T08:08:05;49.10;;;21.27;;
35128;SDS011;21301;43.626;10.580;2023-02-15T08:10:32;37.10;;;17.08;;
35128;SDS011;21301;43.626;10.580;2023-02-15T08:13:17;40.33;;;19.63;;
35128;SDS011;21301;43.626;10.580;2023-02-15T08:15:49;53.85;;;25.00;;
35128;SDS011;21301;43.626;10.580;2023-02-15T08:18:15;60.53;;;25.50;;
35128;SDS011;21301;43.626;10.580;2023-02-15T08:20:41;44.90;;;20.58;;
35128;SDS011;21301;43.626;10.580;2023-02-15T08:23:07;37.97;;;18.13;;
35128;SDS011;21301;43.626;10.580;2023-02-15T08:25:33;48.05;;;21.40;;
35128;SDS011;21301;43.626;10.580;2023-02-15T08:27:59;47.95;;;19.50;;
35128;SDS011;21301;43.626;10.580;2023-02-15T08:30:24;52.97;;;19.95;;
35128;SDS011;21301;43.626;10.580;2023-02-15T08:32:50;50.65;;;22.10;;
35128;SDS011;21301;43.626;10.580;2023-02-15T08:35:16;54.53;;;21.92;;
35128;SDS011;21301;43.626;10.580;2023-02-15T08:37:42;49.88;;;20.90;;
35128;SDS011;21301;43.626;10.580;2023-02-15T08:40:08;62.70;;;25.00;;
35128;SDS011;21301;43.626;10.580;2023-02-15T08:42:34;60.28;;;24.40;;
35128;SDS011;21301;43.626;10.580;2023-02-15T08:45:00;65.30;;;22.90;;
35128;SDS011;21301;43.626;10.580;2023-02-15T08:47:25;49.80;;;21.58;;
35128;SDS011;21301;43.626;10.580;2023-02-15T08:49:51;47.08;;;20.60;;
35128;SDS011;21301;43.626;10.580;2023-02-15T08:52:17;46.50;;;21.25;;
35128;SDS011;21301;43.626;10.580;2023-02-15T08:54:43;45.70;;;21.00;;
35128;SDS011;21301;43.626;10.580;2023-02-15T08:57:09;53.35;;;22.02;;
35128;SDS011;21301;43.626;10.580;2023-02-15T08:59:35;43.83;;;20.05;;
35128;SDS011;21301;43.626;10.580;2023-02-15T09:02:01;51.33;;;23.05;;
35128;SDS011;21301;43.626;10.580;2023-02-15T09:04:28;50.53;;;20.83;;
35128;SDS011;21301;43.626;10.580;2023-02-15T09:06:53;43.40;;;20.58;;
35128;SDS011;21301;43.626;10.580;2023-02-15T09:09:20;44.20;;;20.95;;
35128;SDS011;21301;43.626;10.580;2023-02-15T09:11:48;53.08;;;22.73;;
35128;SDS011;21301;43.626;10.580;2023-02-15T09:14:19;50.80;;;22.77;;
35128;SDS011;21301;43.626;10.580;2023-02-15T09:16:46;54.45;;;25.52;;
35128;SDS011;21301;43.626;10.580;2023-02-15T09:19:17;50.33;;;21.23;;
35128;SDS011;21301;43.626;10.580;2023-02-15T09:21:45;55.75;;;21.80;;
35128;SDS011;21301;43.626;10.580;2023-02-15T09:24:12;40.40;;;20.70;;
35128;SDS011;21301;43.626;10.580;2023-02-15T09:26:40;43.45;;;21.35;;
35128;SDS011;21301;43.626;10.580;2023-02-15T09:29:08;53.25;;;20.67;;
35128;SDS011;21301;43.626;10.580;2023-02-15T09:31:47;47.25;;;21.80;;
35128;SDS011;21301;43.626;10.580;2023-02-15T09:34:15;45.08;;;22.20;;
35128;SDS011;21301;43.626;10.580;2023-02-15T09:36:42;53.45;;;24.92;;
35128;SDS011;21301;43.626;10.580;2023-02-15T09:39:15;52.25;;;24.92;;
35128;SDS011;21301;43.626;10.580;2023-02-15T09:47:31;46.35;;;22.65;;
35128;SDS011;21301;43.626;10.580;2023-02-15T10:07:37;49.85;;;26.55;;
35128;SDS011;21301;43.626;10.580;2023-02-15T10:12:43;43.85;;;23.13;;
35128;SDS011;21301;43.626;10.580;2023-02-15T10:15:30;52.58;;;26.15;;
35128;SDS011;21301;43.626;10.580;2023-02-15T10:18:37;51.45;;;25.00;;
35128;SDS011;21301;43.626;10.580;2023-02-15T10:21:32;44.78;;;23.58;;
35128;SDS011;21301;43.626;10.580;2023-02-15T10:24:16;50.22;;;26.33;;
35128;SDS011;21301;43.626;10.580;2023-02-15T10:27:13;45.50;;;24.88;;
35128;SDS011;21301;43.626;10.580;2023-02-15T10:32:44;44.97;;;23.45;;
35128;SDS011;21301;43.626;10.580;2023-02-15T10:36:10;39.97;;;23.35;;
35128;SDS011;21301;43.626;10.580;2023-02-15T10:38:44;40.17;;;23.10;;
35128;SDS011;21301;43.626;10.580;2023-02-15T10:47:00;41.55;;;23.23;;
35128;SDS011;21301;43.626;10.580;2023-02-15T11:01:02;46.92;;;25.80;;
35128;SDS011;21301;43.626;10.580;2023-02-15T11:06:22;43.22;;;23.58;;
35128;SDS011;21301;43.626;10.580;2023-02-15T11:08:53;42.83;;;24.08;;
35128;SDS011;21301;43.626;10.580;2023-02-15T11:11:26;43.58;;;22.42;;
35128;SDS011;21301;43.626;10.580;2023-02-15T11:13:56;51.65;;;24.65;;
35128;SDS011;21301;43.626;10.580;2023-02-15T11:16:31;42.88;;;24.25;;
35128;SDS011;21301;43.626;10.580;2023-02-15T11:19:06;54.35;;;27.60;;
35128;SDS011;21301;43.626;10.580;2023-02-15T11:21:49;46.53;;;25.05;;
35128;SDS011;21301;43.626;10.580;2023-02-15T11:24:19;42.65;;;25.17;;
35128;SDS011;21301;43.626;10.580;2023-02-15T11:26:51;45.63;;;27.08;;
35128;SDS011;21301;43.626;10.580;2023-02-15T11:29:27;47.60;;;25.40;;
35128;SDS011;21301;43.626;10.580;2023-02-15T11:37:37;45.90;;;26.10;;
35128;SDS011;21301;43.626;10.580;2023-02-15T11:40:14;45.92;;;26.08;;
35128;SDS011;21301;43.626;10.580;2023-02-15T11:43:00;42.47;;;23.83;;
35128;SDS011;21301;43.626;10.580;2023-02-15T11:45:31;45.35;;;24.25;;
35128;SDS011;21301;43.626;10.580;2023-02-15T11:47:59;44.80;;;26.45;;
35128;SDS011;21301;43.626;10.580;2023-02-15T11:50:30;37.63;;;23.88;;
35128;SDS011;21301;43.626;10.580;2023-02-15T11:52:58;46.15;;;25.30;;
35128;SDS011;21301;43.626;10.580;2023-02-15T11:55:27;43.60;;;25.27;;
35128;SDS011;21301;43.626;10.580;2023-02-15T11:57:59;48.65;;;27.58;;
35128;SDS011;21301;43.626;10.580;2023-02-15T12:00:51;42.83;;;25.08;;
35128;SDS011;21301;43.626;10.580;2023-02-15T12:03:22;43.53;;;27.30;;
35128;SDS011;21301;43.626;10.580;2023-02-15T12:08:26;40.03;;;24.55;;
35128;SDS011;21301;43.626;10.580;2023-02-15T12:11:08;40.03;;;26.00;;
35128;SDS011;21301;43.626;10.580;2023-02-15T12:13:53;42.22;;;24.80;;
35128;SDS011;21301;43.626;10.580;2023-02-15T12:16:19;40.65;;;24.73;;
35128;SDS011;21301;43.626;10.580;2023-02-15T12:18:45;38.97;;;23.77;;
35128;SDS011;21301;43.626;10.580;2023-02-15T12:21:34;42.42;;;26.60;;
35128;SDS011;21301;43.626;10.580;2023-02-15T12:24:14;39.77;;;24.30;;
35128;SDS011;21301;43.626;10.580;2023-02-15T12:26:44;37.92;;;23.17;;
35128;SDS011;21301;43.626;10.580;2023-02-15T12:35:31;38.70;;;23.60;;
35128;SDS011;21301;43.626;10.580;2023-02-15T12:38:02;35.33;;;22.63;;
35128;SDS011;21301;43.626;10.580;2023-02-15T12:40:31;39.40;;;25.05;;
35128;SDS011;21301;43.626;10.580;2023-02-15T12:42:58;38.15;;;23.98;;
35128;SDS011;21301;43.626;10.580;2023-02-15T12:45:29;40.38;;;24.67;;
35128;SDS011;21301;43.626;10.580;2023-02-15T12:48:09;38.90;;;25.58;;
35128;SDS011;21301;43.626;10.580;2023-02-15T12:50:44;35.05;;;22.85;;
35128;SDS011;21301;43.626;10.580;2023-02-15T12:53:31;43.92;;;24.95;;
35128;SDS011;21301;43.626;10.580;2023-02-15T12:56:02;40.35;;;24.27;;
35128;SDS011;21301;43.626;10.580;2023-02-15T12:58:31;38.70;;;26.80;;
35128;SDS011;21301;43.626;10.580;2023-02-15T13:01:17;38.25;;;26.50;;
35128;SDS011;21301;43.626;10.580;2023-02-15T13:06:24;38.45;;;25.27;;
35128;SDS011;21301;43.626;10.580;2023-02-15T13:08:52;41.88;;;27.38;;
35128;SDS011;21301;43.626;10.580;2023-02-15T13:11:30;40.78;;;27.23;;
35128;SDS011;21301;43.626;10.580;2023-02-15T13:14:00;39.28;;;24.95;;
35128;SDS011;21301;43.626;10.580;2023-02-15T13:16:32;44.28;;;26.48;;
35128;SDS011;21301;43.626;10.580;2023-02-15T13:19:33;40.47;;;25.02;;
35128;SDS011;21301;43.626;10.580;2023-02-15T13:21:52;39.15;;;26.77;;
35128;SDS011;21301;43.626;10.580;2023-02-15T13:24:32;42.40;;;27.13;;
35128;SDS011;21301;43.626;10.580;2023-02-15T13:27:03;37.05;;;25.17;;
35128;SDS011;21301;43.626;10.580;2023-02-15T13:29:31;51.17;;;32.92;;
35128;SDS011;21301;43.626;10.580;2023-02-15T13:35:06;44.95;;;29.05;;
35128;SDS011;21301;43.626;10.580;2023-02-15T13:43:17;39.47;;;25.25;;
35128;SDS011;21301;43.626;10.580;2023-02-15T13:54:11;38.97;;;23.85;;
35128;SDS011;21301;43.626;10.580;2023-02-15T13:57:05;41.35;;;24.52;;
35128;SDS011;21301;43.626;10.580;2023-02-15T14:08:21;41.67;;;26.52;;
35128;SDS011;21301;43.626;10.580;2023-02-15T14:11:16;39.72;;;24.77;;
35128;SDS011;21301;43.626;10.580;2023-02-15T14:14:05;44.13;;;27.33;;
35128;SDS011;21301;43.626;10.580;2023-02-15T14:20:00;34.63;;;20.92;;
35128;SDS011;21301;43.626;10.580;2023-02-15T14:22:35;38.20;;;26.27;;
35128;SDS011;21301;43.626;10.580;2023-02-15T14:25:27;43.47;;;27.35;;
35128;SDS011;21301;43.626;10.580;2023-02-15T14:30:48;34.20;;;20.52;;
35128;SDS011;21301;43.626;10.580;2023-02-15T14:35:50;40.05;;;24.92;;
35128;SDS011;21301;43.626;10.580;2023-02-15T14:38:36;38.17;;;24.05;;
35128;SDS011;21301;43.626;10.580;2023-02-15T14:49:18;36.63;;;24.08;;
35128;SDS011;21301;43.626;10.580;2023-02-15T14:56:42;29.58;;;19.08;;
35128;SDS011;21301;43.626;10.580;2023-02-15T14:59:18;26.05;;;17.65;;
35128;SDS011;21301;43.626;10.580;2023-02-15T15:01:55;25.00;;;17.90;;
35128;SDS011;21301;43.626;10.580;2023-02-15T15:04:36;25.05;;;18.45;;
35128;SDS011;21301;43.626;10.580;2023-02-15T15:09:46;28.95;;;17.88;;
35128;SDS011;21301;43.626;10.580;2023-02-15T15:14:50;31.05;;;19.77;;
35128;SDS011;21301;43.626;10.580;2023-02-15T15:22:39;28.38;;;19.92;;
35128;SDS011;21301;43.626;10.580;2023-02-15T15:25:10;28.40;;;20.58;;
35128;SDS011;21301;43.626;10.580;2023-02-15T15:27:56;37.13;;;20.33;;
35128;SDS011;21301;43.626;10.580;2023-02-15T15:41:17;28.15;;;17.45;;
35128;SDS011;21301;43.626;10.580;2023-02-15T15:46:50;25.95;;;18.73;;
35128;SDS011;21301;43.626;10.580;2023-02-15T15:49:19;24.77;;;18.17;;
35128;SDS011;21301;43.626;10.580;2023-02-15T15:51:48;26.00;;;17.80;;
35128;SDS011;21301;43.626;10.580;2023-02-15T15:54:21;32.28;;;20.33;;
35128;SDS011;21301;43.626;10.580;2023-02-15T15:56:51;26.90;;;18.13;;
35128;SDS011;21301;43.626;10.580;2023-02-15T15:59:43;28.25;;;19.08;;
35128;SDS011;21301;43.626;10.580;2023-02-15T16:02:16;28.23;;;19.52;;
35128;SDS011;21301;43.626;10.580;2023-02-15T16:09:54;26.77;;;17.20;;
35128;SDS011;21301;43.626;10.580;2023-02-15T16:12:33;25.73;;;16.45;;
35128;SDS011;21301;43.626;10.580;2023-02-15T16:15:05;42.03;;;26.55;;
35128;SDS011;21301;43.626;10.580;2023-02-15T16:17:40;30.58;;;20.92;;
35128;SDS011;21301;43.626;10.580;2023-02-15T16:20:16;22.98;;;16.55;;
35128;SDS011;21301;43.626;10.580;2023-02-15T16:23:16;24.35;;;16.80;;
35128;SDS011;21301;43.626;10.580;2023-02-15T16:31:12;20.02;;;14.65;;
35128;SDS011;21301;43.626;10.580;2023-02-15T16:33:40;22.67;;;15.33;;
35128;SDS011;21301;43.626;10.580;2023-02-15T16:36:10;23.98;;;15.70;;
35128;SDS011;21301;43.626;10.580;2023-02-15T16:41:15;22.33;;;15.68;;
35128;SDS011;21301;43.626;10.580;2023-02-15T16:43:53;24.05;;;16.77;;
35128;SDS011;21301;43.626;10.580;2023-02-15T16:46:30;24.48;;;15.85;;
35128;SDS011;21301;43.626;10.580;2023-02-15T16:48:59;23.88;;;15.73;;
35128;SDS011;21301;43.626;10.580;2023-02-15T16:51:28;24.42;;;15.38;;
35128;SDS011;21301;43.626;10.580;2023-02-15T16:53:56;22.88;;;16.08;;
35128;SDS011;21301;43.626;10.580;2023-02-15T16:56:30;24.38;;;14.60;;
35128;SDS011;21301;43.626;10.580;2023-02-15T16:58:57;24.35;;;15.70;;
35128;SDS011;21301;43.626;10.580;2023-02-15T17:01:25;20.52;;;14.88;;
35128;SDS011;21301;43.626;10.580;2023-02-15T17:07:03;20.52;;;14.90;;
35128;SDS011;21301;43.626;10.580;2023-02-15T17:09:32;25.92;;;16.85;;
35128;SDS011;21301;43.626;10.580;2023-02-15T17:11:58;21.80;;;15.00;;
35128;SDS011;21301;43.626;10.580;2023-02-15T17:14:27;35.25;;;16.58;;
35128;SDS011;21301;43.626;10.580;2023-02-15T17:17:02;23.20;;;15.30;;
35128;SDS011;21301;43.626;10.580;2023-02-15T17:19:33;27.58;;;18.90;;
35128;SDS011;21301;43.626;10.580;2023-02-15T17:22:18;27.60;;;17.35;;
35128;SDS011;21301;43.626;10.580;2023-02-15T17:24:48;25.45;;;16.83;;
35128;SDS011;21301;43.626;10.580;2023-02-15T17:27:23;26.50;;;17.48;;
35128;SDS011;21301;43.626;10.580;2023-02-15T17:29:56;27.48;;;18.17;;
35128;SDS011;21301;43.626;10.580;2023-02-15T17:32:25;27.52;;;18.42;;
35128;SDS011;21301;43.626;10.580;2023-02-15T17:35:01;183.30;;;123.82;;